createdAt,value
2023-01-18T00:00:32.408Z,25.27
2023-01-18T00:05:54.805Z,25.55
2023-01-18T00:11:16.882Z,27.38
2023-01-18T00:16:38.776Z,27.42
2023-01-18T00:22:00.762Z,24.55
2023-01-18T00:27:22.597Z,28.45
2023-01-18T00:32:45.367Z,30.27
2023-01-18T00:38:07.287Z,26.58
2023-01-18T00:43:29.202Z,28.60
2023-01-18T00:48:52.266Z,28.73
2023-01-18T00:54:14.166Z,29.30
2023-01-18T00:59:36.043Z,30.63
2023-01-18T01:04:57.859Z,29.58
2023-01-18T01:10:19.764Z,27.23
2023-01-18T01:15:41.660Z,28.60
2023-01-18T01:21:04.553Z,29.83
2023-01-18T01:26:26.391Z,29.33
2023-01-18T01:31:48.256Z,31.33
2023-01-18T01:37:10.083Z,31.60
2023-01-18T01:42:31.940Z,29.45
2023-01-18T01:47:55.288Z,29.95
2023-01-18T01:53:17.149Z,30.40
2023-01-18T01:58:40.039Z,27.77
2023-01-18T02:04:02.965Z,28.20
2023-01-18T02:09:24.994Z,26.50
2023-01-18T02:14:47.186Z,25.60
2023-01-18T02:20:42.396Z,26.20
2023-01-18T02:26:17.812Z,24.60
2023-01-18T02:31:56.857Z,23.97
2023-01-18T02:37:33.698Z,20.75
2023-01-18T02:43:00.865Z,22.90
2023-01-18T02:48:24.727Z,21.83
2023-01-18T02:53:48.732Z,21.38
2023-01-18T02:59:33.408Z,19.55
2023-01-18T03:04:55.824Z,19.88
2023-01-18T03:10:17.878Z,21.27
2023-01-18T03:15:42.629Z,19.75
2023-01-18T03:21:06.538Z,20.45
2023-01-18T03:26:28.676Z,18.33
2023-01-18T03:32:04.907Z,18.50
2023-01-18T03:37:31.520Z,19.00
2023-01-18T03:43:08.438Z,19.88
2023-01-18T03:48:32.541Z,20.58
2023-01-18T03:54:29.047Z,20.23
2023-01-18T03:59:51.795Z,20.33
2023-01-18T04:05:14.236Z,21.25
2023-01-18T04:10:36.079Z,22.15
2023-01-18T04:15:57.923Z,20.50
2023-01-18T04:21:19.782Z,19.45
2023-01-18T04:26:41.669Z,20.88
2023-01-18T04:32:04.498Z,21.80
2023-01-18T04:37:26.556Z,20.85
2023-01-18T04:42:52.892Z,21.25
2023-01-18T04:53:36.479Z,22.40
2023-01-18T04:58:58.344Z,23.58
2023-01-18T05:04:20.826Z,22.85
2023-01-18T05:09:42.705Z,21.13
2023-01-18T05:15:05.204Z,23.02
2023-01-18T05:20:27.129Z,23.70
2023-01-18T05:25:53.908Z,22.45
2023-01-18T05:31:17.547Z,23.73
2023-01-18T05:36:39.450Z,21.45
2023-01-18T05:42:01.701Z,23.10
2023-01-18T05:47:23.557Z,20.02
2023-01-18T05:52:45.379Z,20.20
2023-01-18T05:58:07.729Z,19.75
2023-01-18T06:03:29.666Z,18.30
2023-01-18T06:08:51.761Z,15.77
2023-01-18T06:14:13.687Z,14.75
2023-01-18T06:19:36.162Z,14.07
2023-01-18T06:24:58.422Z,14.10
2023-01-18T06:30:20.855Z,12.65
2023-01-18T06:35:43.203Z,12.93
2023-01-18T06:41:05.210Z,11.57
2023-01-18T06:46:27.053Z,12.73
2023-01-18T06:51:49.085Z,12.32
2023-01-18T06:57:11.531Z,11.43
2023-01-18T07:02:33.961Z,11.40
2023-01-18T07:07:55.796Z,11.25
2023-01-18T07:13:17.663Z,10.05
2023-01-18T07:18:39.641Z,10.68
2023-01-18T07:24:01.541Z,8.93
2023-01-18T07:29:23.440Z,9.40
2023-01-18T07:34:45.396Z,7.45
2023-01-18T07:40:08.086Z,8.52
2023-01-18T07:45:30.303Z,6.47
2023-01-18T07:50:57.266Z,6.53
2023-01-18T07:56:19.186Z,6.03
2023-01-18T08:01:41.141Z,6.25
2023-01-18T08:07:03.084Z,5.60
2023-01-18T08:12:24.986Z,4.78
2023-01-18T08:17:46.844Z,5.65
2023-01-18T08:23:08.991Z,5.20
2023-01-18T08:28:31.368Z,5.00
2023-01-18T08:33:53.502Z,4.60
2023-01-18T08:39:15.381Z,4.65
2023-01-18T08:44:37.214Z,5.28
2023-01-18T08:49:59.186Z,4.43
2023-01-18T08:55:22.507Z,3.90
2023-01-18T09:00:44.402Z,3.92
2023-01-18T09:06:07.136Z,3.67
2023-01-18T09:11:29.195Z,3.63
2023-01-18T09:16:51.087Z,3.13
2023-01-18T09:22:13.063Z,2.95
2023-01-18T09:27:34.955Z,2.13
2023-01-18T09:32:58.517Z,2.75
2023-01-18T09:38:20.737Z,2.30
2023-01-18T09:43:50.109Z,2.08
2023-01-18T09:49:21.763Z,2.20
2023-01-18T09:55:02.367Z,2.05
2023-01-18T10:00:26.040Z,2.28
2023-01-18T10:06:02.624Z,2.65
2023-01-18T10:11:30.204Z,2.20
2023-01-18T10:16:59.097Z,2.28
2023-01-18T10:22:37.759Z,2.38
2023-01-18T10:28:08.555Z,2.40
2023-01-18T10:33:35.781Z,2.10
2023-01-18T10:39:00.190Z,2.33
2023-01-18T10:44:22.087Z,2.53
2023-01-18T10:49:46.028Z,2.50
2023-01-18T10:55:15.390Z,2.88
2023-01-18T11:00:37.397Z,2.22
2023-01-18T11:06:06.967Z,2.22
2023-01-18T11:11:32.754Z,2.75
2023-01-18T11:17:12.735Z,2.97
2023-01-18T11:22:35.494Z,3.08
2023-01-18T11:28:02.473Z,3.47
2023-01-18T11:33:27.348Z,3.35
2023-01-18T11:38:49.228Z,3.28
2023-01-18T11:44:25.083Z,3.20
2023-01-18T11:49:55.001Z,2.85
2023-01-18T11:55:40.793Z,2.58
2023-01-18T12:01:24.779Z,3.53
2023-01-18T12:06:55.165Z,3.28
2023-01-18T12:12:45.416Z,2.42
2023-01-18T12:18:14.033Z,3.13
2023-01-18T12:23:54.584Z,3.10
2023-01-18T12:29:46.808Z,3.13
2023-01-18T12:35:30.480Z,2.58
2023-01-18T12:41:01.879Z,3.10
2023-01-18T12:46:33.293Z,2.42
2023-01-18T12:52:17.650Z,2.10
2023-01-18T12:57:40.671Z,2.23
2023-01-18T13:03:09.710Z,2.53
2023-01-18T13:08:44.579Z,2.20
2023-01-18T13:14:07.247Z,3.05
2023-01-18T13:19:44.440Z,2.47
2023-01-18T13:25:24.158Z,2.85
2023-01-18T13:30:59.969Z,3.70
2023-01-18T13:42:08.391Z,3.40
2023-01-18T13:47:36.272Z,3.97
2023-01-18T13:53:13.228Z,3.33
2023-01-18T13:58:36.153Z,3.30
2023-01-18T14:04:07.142Z,3.15
2023-01-18T14:09:46.094Z,3.00
2023-01-18T14:15:24.394Z,3.60
2023-01-18T14:21:00.749Z,3.38
2023-01-18T14:31:55.647Z,4.80
2023-01-18T14:37:27.764Z,5.38
2023-01-18T14:42:49.565Z,5.15
2023-01-18T14:48:16.587Z,4.90
2023-01-18T14:53:47.317Z,4.85
2023-01-18T14:59:24.909Z,4.20
2023-01-18T15:04:46.772Z,4.32
2023-01-18T15:10:10.529Z,3.80
2023-01-18T15:15:40.834Z,3.75
2023-01-18T15:21:05.218Z,4.22
2023-01-18T15:26:35.025Z,3.80
2023-01-18T15:31:57.938Z,4.43
2023-01-18T15:37:33.886Z,4.30
2023-01-18T15:42:58.403Z,4.65
2023-01-18T15:48:23.012Z,4.78
2023-01-18T15:53:48.598Z,4.88
2023-01-18T15:59:10.811Z,5.07
2023-01-18T16:04:33.538Z,5.72
2023-01-18T16:10:17.102Z,6.18
2023-01-18T16:15:39.416Z,6.88
2023-01-18T16:21:09.276Z,7.00
2023-01-18T16:26:31.254Z,8.10
2023-01-18T16:32:21.864Z,8.65
2023-01-18T16:37:44.085Z,9.68
2023-01-18T16:43:18.518Z,10.10
2023-01-18T16:48:40.423Z,10.70
2023-01-18T16:54:02.256Z,10.57
2023-01-18T16:59:24.096Z,11.65
2023-01-18T17:04:45.937Z,11.80
2023-01-18T17:10:19.045Z,12.68
2023-01-18T17:15:41.072Z,13.68
2023-01-18T17:21:02.966Z,14.95
2023-01-18T17:26:24.851Z,14.45
2023-01-18T17:31:55.015Z,14.73
2023-01-18T17:37:16.915Z,13.77
2023-01-18T17:42:38.791Z,13.98
2023-01-18T17:48:01.367Z,13.35
2023-01-18T17:53:23.242Z,13.45
2023-01-18T17:58:46.917Z,16.02
2023-01-18T18:04:08.787Z,17.02
2023-01-18T18:09:31.128Z,14.88
2023-01-18T18:14:52.983Z,17.58
2023-01-18T18:20:15.275Z,18.38
2023-01-18T18:25:37.707Z,17.95
2023-01-18T18:31:00.546Z,20.23
2023-01-18T18:36:22.507Z,20.13
2023-01-18T18:41:44.910Z,21.42
2023-01-18T18:47:07.587Z,23.75
2023-01-18T18:52:29.508Z,22.40
2023-01-18T18:57:51.518Z,20.58
2023-01-18T19:03:13.726Z,21.33
2023-01-18T19:08:35.699Z,22.83
2023-01-18T19:13:57.576Z,22.02
2023-01-18T19:19:20.342Z,23.80
2023-01-18T19:24:42.252Z,24.58
2023-01-18T19:30:04.571Z,25.45
2023-01-18T19:35:27.095Z,27.50
2023-01-18T19:40:49.036Z,27.95
2023-01-18T19:46:12.624Z,29.10
2023-01-18T19:51:34.834Z,28.45
2023-01-18T19:56:56.753Z,28.88
2023-01-18T20:02:19.062Z,29.52
2023-01-18T20:07:41.100Z,28.77
2023-01-18T20:13:03.312Z,28.70
2023-01-18T20:18:26.704Z,28.92
2023-01-18T20:23:48.588Z,27.55
2023-01-18T20:29:10.644Z,25.95
2023-01-18T20:34:34.084Z,27.05
2023-01-18T20:39:56.229Z,26.85
2023-01-18T20:45:18.092Z,26.58
2023-01-18T20:50:40.891Z,23.67
2023-01-18T20:56:05.215Z,22.40
2023-01-18T21:01:27.913Z,23.88
2023-01-18T21:06:49.948Z,22.33
2023-01-18T21:12:11.916Z,23.73
2023-01-18T21:17:33.806Z,22.90
2023-01-18T21:22:59.954Z,23.27
2023-01-18T21:28:22.827Z,24.58
2023-01-18T21:33:44.712Z,24.17
2023-01-18T21:39:06.644Z,23.67
2023-01-18T21:44:28.956Z,23.83
2023-01-18T21:50:16.593Z,23.67
2023-01-18T21:55:33.270Z,20.88
2023-01-18T22:00:55.191Z,22.25
2023-01-18T22:06:17.138Z,21.05
2023-01-18T22:11:39.128Z,20.67
2023-01-18T22:17:01.020Z,19.17
2023-01-18T22:22:23.913Z,21.40
2023-01-18T22:27:46.136Z,21.38
2023-01-18T22:33:08.369Z,21.08
2023-01-18T22:38:31.448Z,22.42
2023-01-18T22:43:54.603Z,22.70
2023-01-18T22:49:16.593Z,24.15
2023-01-18T22:54:38.476Z,25.33
2023-01-18T23:00:00.359Z,24.20
2023-01-18T23:05:22.257Z,24.08
2023-01-18T23:10:44.200Z,23.42
2023-01-18T23:16:08.670Z,23.65
2023-01-18T23:21:30.552Z,24.52
2023-01-18T23:26:52.474Z,23.42
2023-01-18T23:32:14.401Z,24.05
2023-01-18T23:37:36.293Z,23.45
2023-01-18T23:42:58.137Z,23.77
2023-01-18T23:48:20.311Z,23.92
2023-01-18T23:53:42.264Z,25.15
2023-01-18T23:59:04.110Z,22.75
